Time;durP1;ratioP1;P1;durP2;ratioP2;P2;SDS_P1;SDS_P2;PMS_P1;PMS_P2;Temp;Humidity;BMP_temperature;BMP_pressure;BME280_temperature;BME280_humidity;BME280_pressure;Samples;Min_cycle;Max_cycle;Signal;HPM_P1;HPM_P2
2022/05/11 00:01:13;;;;;;;;;22.00;22.00;;;;;11.86;88.69;99849.25;6283368;20;2838926;-60
2022/05/11 00:03:42;;;;;;;;;24.50;22.00;;;;;11.50;89.80;99858.63;6285738;20;2841365;-60
2022/05/11 00:06:11;;;;;;;;;23.50;23.50;;;;;11.51;91.04;99852.31;6284401;20;2838823;-59
2022/05/11 00:08:39;;;;;;;;;28.00;26.00;;;;;11.08;92.04;99846.91;6286362;20;2848196;-59
2022/05/11 00:11:08;;;;;;;;;25.00;24.50;;;;;11.35;91.04;99846.19;6285120;20;2845052;-58
2022/05/11 00:13:37;;;;;;;;;28.00;23.00;;;;;11.23;92.34;99838.88;6285509;20;2848199;-57
2022/05/11 00:16:07;;;;;;;;;26.00;23.00;;;;;11.35;91.05;99838.13;6285224;20;2848337;-60
2022/05/11 00:18:37;;;;;;;;;31.00;26.00;;;;;11.25;92.01;99847.72;6315432;20;2858670;-60
2022/05/11 00:21:07;;;;;;;;;27.00;25.00;;;;;11.48;89.79;99838.19;6282968;20;2851358;-59
2022/05/11 00:23:36;;;;;;;;;24.00;22.50;;;;;11.23;91.07;99838.88;6283585;20;2845062;-59
2022/05/11 00:26:06;;;;;;;;;26.00;21.50;;;;;11.35;90.42;99833.59;6281562;20;2841090;-60
2022/05/11 00:28:35;;;;;;;;;29.00;27.00;;;;;10.96;92.39;99826.16;6284341;20;2847341;-60
2022/05/11 00:31:05;;;;;;;;;24.67;22.00;;;;;10.88;92.52;99833.84;6315589;20;3572359;-59
2022/05/11 00:33:33;;;;;;;;;22.50;19.00;;;;;10.90;93.28;99826.53;6316471;20;2822375;-60
2022/05/11 00:36:03;;;;;;;;;24.50;23.00;;;;;10.95;93.28;99832.47;6285395;20;2842114;-59
2022/05/11 00:38:32;;;;;;;;;23.00;20.00;;;;;11.25;91.48;99836.97;6282131;20;2832664;-60
2022/05/11 00:41:01;;;;;;;;;24.50;23.00;;;;;11.08;92.75;99830.78;6281576;20;2837787;-59
2022/05/11 00:43:42;;;;;;;;;25.50;25.00;;;;;10.99;92.91;99831.34;6282580;20;2846668;-60
2022/05/11 00:46:34;;;;;;;;;29.00;26.00;;;;;10.93;92.74;99837.09;6280679;20;2841055;-59
2022/05/11 00:49:35;;;;;;;;;25.50;24.50;;;;;11.03;92.69;99835.56;6284620;20;2839869;-59
2022/05/11 00:52:16;;;;;;;;;29.00;25.67;;;;;10.73;93.06;99828.41;6284359;20;3587728;-59
2022/05/11 00:55:01;;;;;;;;;24.00;23.00;;;;;10.98;93.40;99824.25;6278946;20;2845029;-47
2022/05/11 00:58:18;;;;;;;;;25.00;25.00;;;;;10.95;92.05;99833.38;6282409;20;2850801;-49
2022/05/11 01:00:47;;;;;;;;;28.00;25.50;;;;;10.40;94.32;99825.03;6278417;20;2854446;-49
2022/05/11 01:03:24;;;;;;;;;28.00;24.00;;;;;10.71;92.91;99824.94;6283508;20;2847154;-49
2022/05/11 01:05:53;;;;;;;;;24.00;22.00;;;;;10.68;92.48;99822.44;6279859;20;2838769;-45
2022/05/11 01:08:24;;;;;;;;;26.50;24.50;;;;;10.73;92.29;99830.25;6281828;20;2845133;-45
2022/05/11 01:10:53;;;;;;;;;25.50;23.00;;;;;10.90;90.83;99826.53;6278289;20;2842950;-49
2022/05/11 01:13:23;;;;;;;;;25.50;25.50;;;;;10.70;92.30;99835.78;6284009;20;2852350;-46
2022/05/11 01:15:53;;;;;;;;;31.00;27.00;;;;;11.02;90.67;99833.84;6284640;20;2851312;-47
2022/05/11 01:18:24;;;;;;;;;25.50;23.50;;;;;10.89;91.63;99832.88;6281754;20;2848162;-47
2022/05/11 01:20:53;;;;;;;;;24.50;24.00;;;;;10.79;92.21;99837.91;6281182;20;2837861;-47
2022/05/11 01:23:42;;;;;;;;;27.67;27.67;;;;;10.80;92.79;99828.06;6282139;20;2864975;-47
2022/05/11 01:26:17;;;;;;;;;28.00;25.67;;;;;10.94;92.27;99828.09;6311126;20;2855623;-48
2022/05/11 01:28:54;;;;;;;;;18.00;18.00;;;;;11.27;90.33;99829.63;6312755;20;2827332;-46
2022/05/11 01:31:23;;;;;;;;;24.00;24.00;;;;;11.34;90.36;99836.38;6286164;20;2848178;-50
2022/05/11 01:33:52;;;;;;;;;26.00;22.50;;;;;11.51;88.96;99836.19;6282684;20;2848236;-46
2022/05/11 01:36:34;;;;;;;;;25.50;24.50;;;;;11.21;90.67;99838.94;6282098;20;2842954;-48
2022/05/11 01:39:07;;;;;;;;;24.50;20.50;;;;;11.34;90.31;99836.38;6281175;20;2833578;-48
2022/05/11 01:41:40;;;;;;;;;21.00;21.00;;;;;11.06;91.40;99843.47;6279480;20;2500294;-46
2022/05/11 01:44:16;;;;;;;;;22.00;21.00;;;;;11.71;88.00;99836.75;6282311;20;2843994;-47
2022/05/11 01:46:57;;;;;;;;;24.33;20.67;;;;;11.51;88.13;99836.19;6287861;20;3566883;-46
2022/05/11 01:49:27;;;;;;;;;21.00;21.00;;;;;11.81;86.88;99835.19;6312218;20;2839889;-45
2022/05/11 01:51:56;;;;;;;;;25.50;23.50;;;;;11.55;87.06;99842.22;6282456;20;2835703;-47
2022/05/11 01:54:24;;;;;;;;;23.00;19.00;;;;;11.51;87.55;99840.72;6280298;20;2500264;-49
2022/05/11 01:56:53;;;;;;;;;18.00;18.00;;;;;11.42;87.35;99847.50;6282350;20;2835799;-45
2022/05/11 01:59:22;;;;;;;;;22.00;18.00;;;;;11.26;89.03;99841.38;6281314;20;2832542;-46
2022/05/11 02:01:51;;;;;;;;;27.00;22.00;;;;;10.98;90.10;99829.63;6281859;20;2848293;-49
2022/05/11 02:09:55;;;;;;;;;25.00;21.50;;;;;10.64;91.95;99836.19;6279145;20;2847257;-47
2022/05/11 02:12:23;;;;;;;;;25.00;21.00;;;;;10.37;93.64;99834.13;6281095;20;2841925;-48
2022/05/11 02:14:52;;;;;;;;;22.00;22.00;;;;;10.80;92.74;99830.75;6277356;20;2498147;-48
2022/05/11 02:17:20;;;;;;;;;20.00;20.00;;;;;11.39;88.49;99835.13;6276194;20;2492757;-49
2022/05/11 02:19:48;;;;;;;;;19.50;19.50;;;;;11.11;89.85;99824.34;6277612;20;2837762;-48
2022/05/11 02:22:17;;;;;;;;;23.00;21.00;;;;;10.88;90.39;99828.47;6276438;20;2834799;-50
2022/05/11 02:24:46;;;;;;;;;25.00;24.00;;;;;10.52;92.80;99830.56;6276374;20;2823304;-51
2022/05/11 02:27:14;;;;;;;;;22.00;21.00;;;;;10.41;93.71;99829.47;6277932;20;2835812;-49
2022/05/11 02:29:43;;;;;;;;;25.50;21.00;;;;;10.33;93.72;99828.09;6278886;20;2836713;-51
2022/05/11 02:32:12;;;;;;;;;27.00;23.00;;;;;10.41;93.57;99826.78;6280027;20;2856490;-51
2022/05/11 02:37:28;;;;;;;;;21.00;21.00;;;;;10.36;92.68;99826.19;6314497;20;3585678;-47
2022/05/11 02:39:56;;;;;;;;;22.00;20.00;;;;;10.46;92.19;99832.75;6279019;20;2834706;-45
2022/05/11 02:42:25;;;;;;;;;19.00;19.00;;;;;10.32;91.88;99831.75;6279720;20;2832564;-49
2022/05/11 02:44:54;;;;;;;;;29.00;24.00;;;;;10.43;91.13;99836.47;6280144;20;2842988;-52
2022/05/11 02:47:22;;;;;;;;;24.00;21.00;;;;;10.38;90.25;99837.72;6279830;20;2500265;-50
2022/05/11 02:49:51;;;;;;;;;22.00;22.00;;;;;10.57;89.96;99835.66;6278327;20;2848175;-53
2022/05/11 02:52:20;;;;;;;;;23.00;21.50;;;;;10.66;89.43;99829.72;6280944;20;2839890;-48
2022/05/11 02:54:48;;;;;;;;;20.00;20.00;;;;;10.33;91.18;99825.41;6281558;20;2839857;-46
2022/05/11 02:57:17;;;;;;;;;27.00;23.00;;;;;10.38;90.98;99824.28;6280295;20;2836875;-46
2022/05/11 02:59:48;;;;;;;;;21.00;21.00;;;;;10.29;92.46;99823.88;6279006;20;2827363;-49
2022/05/11 03:02:21;;;;;;;;;13.67;13.00;;;;;10.71;89.71;99827.63;6279631;20;3537733;-48
2022/05/11 03:04:51;;;;;;;;;30.33;23.67;;;;;10.61;90.10;99820.22;6313040;20;3587773;-46
2022/05/11 03:07:20;;;;;;;;;29.50;27.00;;;;;10.26;91.31;99831.19;6279157;20;2856535;-48
2022/05/11 03:09:49;;;;;;;;;24.00;22.00;;;;;10.28;91.42;99823.94;6280762;20;2841998;-49
2022/05/11 03:12:18;;;;;;;;;23.00;23.00;;;;;10.41;91.44;99826.78;6280711;20;2843017;-49
2022/05/11 03:14:47;;;;;;;;;22.50;21.00;;;;;10.69;90.13;99829.56;6281929;20;2850343;-46
2022/05/11 03:17:17;;;;;;;;;22.50;21.50;;;;;10.93;88.82;99831.75;6276938;20;2841902;-47
2022/05/11 03:19:44;;;;;;;;;19.50;19.50;;;;;10.77;88.86;99829.97;6278613;20;2500228;-49
2022/05/11 03:22:13;;;;;;;;;21.50;20.50;;;;;10.35;91.42;99824.44;6276778;20;2810691;-47
2022/05/11 03:24:41;;;;;;;;;20.00;18.50;;;;;10.43;92.27;99836.47;6278824;20;2496077;-46
2022/05/11 03:27:10;;;;;;;;;25.00;19.00;;;;;10.49;91.56;99832.56;6280480;20;3579430;-49
2022/05/11 03:29:38;;;;;;;;;21.33;19.33;;;;;10.31;92.71;99835.34;6280545;20;3573461;-47
2022/05/11 03:34:55;;;;;;;;;22.00;21.00;;;;;10.46;92.29;99838.13;6279837;20;2835715;-47
2022/05/11 03:37:24;;;;;;;;;27.00;22.50;;;;;10.60;91.90;99846.22;6280078;20;2846183;-51
2022/05/11 03:39:52;;;;;;;;;23.50;21.00;;;;;10.23;93.24;99842.97;6278020;20;2854558;-48
2022/05/11 03:42:27;;;;;;;;;27.00;24.50;;;;;10.11;93.75;99846.38;6278597;20;2845077;-45
2022/05/11 03:44:55;;;;;;;;;23.00;22.00;;;;;10.73;92.31;99839.16;6279548;20;2850227;-46
2022/05/11 03:47:24;;;;;;;;;21.00;21.00;;;;;10.79;90.72;99845.13;6275933;20;2833646;-47
2022/05/11 03:49:53;;;;;;;;;25.00;24.00;;;;;10.62;91.97;99844.31;6278136;20;2844153;-48
2022/05/11 03:52:23;;;;;;;;;27.00;25.50;;;;;10.63;92.03;99850.53;6275765;20;2850237;-49
2022/05/11 03:54:51;;;;;;;;;21.00;21.00;;;;;10.64;91.90;99853.16;6280106;20;2839824;-47
2022/05/11 03:57:19;;;;;;;;;22.50;18.50;;;;;11.26;87.92;99865.56;6278236;20;2496093;-47
2022/05/11 03:59:47;;;;;;;;;26.00;23.00;;;;;11.11;88.35;99857.47;6277454;20;2556534;-50
2022/05/11 04:02:16;;;;;;;;;24.00;23.50;;;;;10.81;90.52;99853.94;6278242;20;2845030;-48
2022/05/11 04:04:45;;;;;;;;;23.00;21.00;;;;;11.17;87.77;99858.94;6277397;20;2838785;-45
2022/05/11 04:07:14;;;;;;;;;28.00;25.00;;;;;10.97;89.37;99860.97;6277449;20;2839821;-47
2022/05/11 04:09:43;;;;;;;;;23.50;22.50;;;;;11.14;90.39;99856.44;6276651;20;2841143;-52
2022/05/11 04:12:13;;;;;;;;;26.50;23.00;;;;;11.48;88.39;99860.59;6277865;20;2846310;-49
2022/05/11 04:14:43;;;;;;;;;22.50;20.00;;;;;12.12;85.12;99870.91;6280780;20;2821114;-49
2022/05/11 04:17:13;;;;;;;;;23.50;21.00;;;;;12.08;84.78;99865.75;6269572;20;2840876;-52
2022/05/11 04:19:41;;;;;;;;;23.00;22.00;;;;;11.84;85.83;99869.97;6278032;20;2839894;-53
2022/05/11 04:22:11;;;;;;;;;26.00;23.00;;;;;11.97;86.72;99870.06;6276292;20;2845102;-51
2022/05/11 04:24:41;;;;;;;;;23.67;23.67;;;;;11.93;87.76;99866.72;6310445;20;2843050;-59
2022/05/11 04:27:11;;;;;;;;;28.67;25.33;;;;;11.76;89.16;99870.44;6310739;20;2854552;-59
2022/05/11 04:29:41;;;;;;;;;31.00;28.33;;;;;11.80;89.66;99865.75;6310663;20;2848224;-59
2022/05/11 04:32:10;;;;;;;;;27.00;23.00;;;;;11.95;89.61;99874.69;6313153;20;2841979;-59
2022/05/11 04:34:43;;;;;;;;;25.00;23.00;;;;;12.20;87.36;99876.66;6284473;20;2841117;-59
2022/05/11 04:37:12;;;;;;;;;20.00;20.00;;;;;12.18;86.79;99871.38;6282524;20;2838786;-59
2022/05/11 04:39:41;;;;;;;;;24.00;22.00;;;;;12.12;86.22;99870.91;6282482;20;2836721;-59
2022/05/11 04:42:11;;;;;;;;;27.00;27.00;;;;;11.92;89.67;99870.34;6283703;20;3605135;-59
2022/05/11 04:44:41;;;;;;;;;23.67;23.00;;;;;12.49;87.37;99869.34;6312532;20;2856615;-59
2022/05/11 04:47:15;;;;;;;;;25.50;25.50;;;;;12.72;86.46;99870.53;6313161;20;2846120;-59
2022/05/11 04:49:44;;;;;;;;;29.33;28.00;;;;;12.89;85.57;99872.91;6283962;20;3574171;-59
2022/05/11 04:52:17;;;;;;;;;32.33;27.00;;;;;13.25;83.97;99878.59;6280391;20;2844238;-59
2022/05/11 04:54:49;;;;;;;;;37.00;28.67;;;;;13.42;83.56;99886.38;6314280;20;3603374;-59
2022/05/11 04:57:19;;;;;;;;;28.67;25.00;;;;;13.70;81.85;99884.44;6287727;20;3591893;-59
2022/05/11 04:59:50;;;;;;;;;26.33;23.00;;;;;14.48;78.99;99895.81;6283258;20;2850271;-59
2022/05/11 05:02:23;;;;;;;;;25.00;24.00;;;;;14.73;76.42;99898.53;6314873;20;3587842;-59
2022/05/11 05:04:57;;;;;;;;;20.00;19.00;;;;;14.74;76.14;99892.13;6282614;20;2831515;-60
2022/05/11 05:07:28;;;;;;;;;21.00;21.00;;;;;14.66;75.84;99890.88;6280765;20;2840892;-59
2022/05/11 05:09:56;;;;;;;;;20.33;20.33;;;;;14.59;77.80;99900.44;6317497;20;3567959;-59
2022/05/11 05:12:25;;;;;;;;;23.00;21.50;;;;;15.07;76.50;99900.38;6281444;20;2839927;-60
2022/05/11 05:14:54;;;;;;;;;22.00;22.00;;;;;15.84;71.65;99894.38;6283808;20;2834664;-60
2022/05/11 05:17:23;;;;;;;;;20.00;18.50;;;;;16.30;69.66;99895.19;6283037;20;2836766;-60
2022/05/11 05:19:52;;;;;;;;;16.50;16.00;;;;;16.39;68.10;99892.59;6283970;20;2829436;-60
2022/05/11 05:22:20;;;;;;;;;18.00;18.00;;;;;16.50;67.40;99890.84;6280847;20;2829426;-58
2022/05/11 05:24:50;;;;;;;;;19.00;17.00;;;;;16.56;66.82;99901.19;6285045;20;2825312;-60
2022/05/11 05:27:19;;;;;;;;;18.00;16.50;;;;;16.99;65.41;99905.78;6312576;20;2483623;-60
2022/05/11 05:32:44;;;;;;;;;20.50;16.00;;;;;17.73;64.54;99900.25;6282219;20;2487794;-59
2022/05/11 05:35:17;;;;;;;;;17.00;16.00;;;;;17.93;65.24;99903.94;6283962;20;2827384;-59
2022/05/11 05:37:46;;;;;;;;;15.00;15.00;;;;;17.87;64.91;99905.34;6282378;20;3537750;-59
2022/05/11 05:40:14;;;;;;;;;15.00;15.00;;;;;18.03;62.30;99902.13;6279806;20;2472119;-59
2022/05/11 05:42:43;;;;;;;;;17.00;17.00;;;;;17.86;66.12;99902.78;6283869;20;2824303;-59
2022/05/11 05:45:12;;;;;;;;;17.00;17.00;;;;;17.83;65.14;99908.50;6282732;20;2829422;-60
2022/05/11 05:47:41;;;;;;;;;17.33;17.33;;;;;18.34;64.79;99912.97;6285872;20;3561709;-60
2022/05/11 05:50:11;;;;;;;;;21.00;20.33;;;;;18.35;67.14;99915.56;6315274;20;3586928;-60
2022/05/11 05:52:39;;;;;;;;;16.00;16.00;;;;;18.39;64.53;99918.84;6284623;20;3562752;-60
2022/05/11 05:55:08;;;;;;;;;18.00;17.50;;;;;18.45;65.46;99915.56;6281002;20;2496140;-60
2022/05/11 05:57:38;;;;;;;;;19.50;19.50;;;;;18.94;63.91;99922.00;6281494;20;2836352;-60
2022/05/11 06:00:08;;;;;;;;;22.00;20.00;;;;;18.80;66.03;99922.38;6285333;20;3589856;-60
2022/05/11 06:02:38;;;;;;;;;19.67;19.00;;;;;19.10;64.99;99915.97;6282004;20;2832536;-60
2022/05/11 06:05:08;;;;;;;;;21.33;18.00;;;;;19.22;61.48;99925.72;6317450;20;3570062;-60
2022/05/11 06:07:37;;;;;;;;;19.67;16.67;;;;;19.17;60.12;99917.13;6284569;20;3566893;-59
2022/05/11 06:10:07;;;;;;;;;21.67;18.67;;;;;19.58;60.24;99920.50;6315626;20;3577480;-60
2022/05/11 06:12:37;;;;;;;;;19.00;19.00;;;;;19.79;59.48;99922.22;6284393;20;3567950;-57
2022/05/11 06:15:07;;;;;;;;;16.00;15.67;;;;;20.02;60.28;99925.44;6316644;20;3556524;-60
2022/05/11 06:17:36;;;;;;;;;21.50;17.00;;;;;20.06;60.02;99915.94;6280944;20;2829437;-60
2022/05/11 06:20:08;;;;;;;;;22.50;20.00;;;;;20.12;59.90;99929.00;6283445;20;2833591;-60
2022/05/11 06:22:38;;;;;;;;;18.33;17.00;;;;;20.48;60.25;99924.47;6285797;20;3563899;-59
2022/05/11 06:25:07;;;;;;;;;20.00;19.00;;;;;20.90;59.81;99925.81;6312418;20;2843993;-60
2022/05/11 06:27:37;;;;;;;;;13.00;13.00;;;;;20.90;58.00;99923.09;6282945;20;3529525;-60
2022/05/11 06:30:07;;;;;;;;;15.50;15.50;;;;;20.94;58.05;99927.25;6278892;20;2816960;-60
2022/05/11 06:32:37;;;;;;;;;21.00;18.00;;;;;21.39;57.58;99927.16;6286392;20;3562754;-60
2022/05/11 06:35:11;;;;;;;;;17.00;16.50;;;;;21.60;55.79;99926.81;6280651;20;2831491;-60
2022/05/11 06:37:41;;;;;;;;;16.00;16.00;;;;;21.42;55.94;99926.00;6278155;20;2827472;-60
2022/05/11 06:40:13;;;;;;;;;17.00;16.00;;;;;21.73;57.44;99923.66;6280893;20;2829480;-60
2022/05/11 06:42:42;;;;;;;;;17.50;16.50;;;;;22.20;54.82;99933.38;6280887;20;2831597;-60
2022/05/11 06:45:12;;;;;;;;;18.33;17.33;;;;;22.82;53.57;99936.66;6283646;20;3562846;-59
2022/05/11 06:47:41;;;;;;;;;19.67;19.67;;;;;23.45;53.56;99941.56;6281687;20;2838824;-60
2022/05/11 06:50:11;;;;;;;;;15.00;14.50;;;;;23.74;53.79;99931.97;6312824;20;3426338;-59
2022/05/11 06:52:40;;;;;;;;;15.00;15.00;;;;;24.37;52.82;99940.41;6319341;20;3547288;-59
2022/05/11 07:00:46;;;;;;;;;17.00;17.00;;;;;24.92;50.35;99928.47;6277060;20;2711722;-60
2022/05/11 07:03:15;;;;;;;;;18.33;18.33;;;;;25.01;50.05;99924.63;6315118;20;3573162;-60
2022/05/11 07:05:46;;;;;;;;;21.00;18.33;;;;;24.70;50.95;99933.75;6280836;20;3554461;-59
2022/05/11 07:08:15;;;;;;;;;18.00;17.00;;;;;25.07;51.29;99929.41;6277959;20;2837802;-59
2022/05/11 07:12:17;;;;;;;;;14.00;14.00;;;;;25.55;47.89;99935.56;6312924;20;3541925;-59
2022/05/11 07:13:32;;;;;;;;;15.33;13.00;;;;;25.53;47.20;99932.16;6285377;20;3543984;-58
2022/05/11 07:16:01;;;;;;;;;13.67;12.67;;;;;25.32;45.89;99932.00;6314761;20;3535720;-59
2022/05/11 07:18:30;;;;;;;;;16.00;16.00;;;;;25.75;45.10;99940.53;6313332;20;2825274;-58
2022/05/11 07:20:58;;;;;;;;;15.00;13.00;;;;;26.17;44.02;99939.09;6279673;20;2796175;-59
2022/05/11 07:23:28;;;;;;;;;11.50;11.50;;;;;25.99;43.08;99940.34;6278465;20;2793028;-56
2022/05/11 07:26:02;;;;;;;;;11.67;11.67;;;;;26.10;41.56;99939.03;6316996;20;3524271;-58
2022/05/11 07:28:30;;;;;;;;;12.67;11.33;;;;;26.03;42.55;99925.16;6311081;20;2483725;-59
2022/05/11 07:30:59;;;;;;;;;11.67;11.67;;;;;25.94;41.16;99942.81;6307546;20;3524238;-59
2022/05/11 07:33:28;;;;;;;;;13.00;13.00;;;;;26.22;41.21;99931.13;6310233;20;3521086;-59
2022/05/11 07:35:56;;;;;;;;;13.67;13.67;;;;;25.98;40.15;99929.50;6285731;20;2802329;-59
2022/05/11 07:38:25;;;;;;;;;17.00;11.67;;;;;26.10;41.09;99929.91;6313681;20;2811738;-58
2022/05/11 07:40:54;;;;;;;;;10.33;10.33;;;;;26.52;37.77;99928.41;6310342;20;3516900;-59
2022/05/11 07:43:23;;;;;;;;;10.00;9.00;;;;;26.88;36.28;99932.03;6282255;20;2483608;-58
2022/05/11 07:45:52;;;;;;;;;9.00;9.00;;;;;26.43;36.54;99933.97;6308851;20;3472132;-59
2022/05/11 07:48:21;;;;;;;;;10.33;8.33;;;;;26.17;34.59;99930.84;6315461;20;2475284;-60
2022/05/11 07:50:49;;;;;;;;;10.33;9.00;;;;;25.93;35.35;99920.97;6315499;20;3499213;-59
2022/05/11 07:53:18;;;;;;;;;7.33;6.00;;;;;26.46;33.22;99928.09;6320482;20;2735686;-59
2022/05/11 07:55:46;;;;;;;;;11.00;9.67;;;;;26.75;32.04;99933.75;6315198;20;3509613;-59
2022/05/11 08:01:03;;;;;;;;;7.00;6.00;;;;;26.41;30.15;99937.94;6340598;20;2736708;-60
2022/05/11 08:03:32;;;;;;;;;7.67;6.67;;;;;26.17;30.61;99939.09;6320128;20;2739868;-58
2022/05/11 08:06:01;;;;;;;;;9.67;8.33;;;;;26.92;30.38;99944.38;6317311;20;2760752;-58
2022/05/11 08:08:30;;;;;;;;;8.00;6.33;;;;;26.49;30.38;99938.72;6319233;20;2733577;-58
2022/05/11 08:10:58;;;;;;;;;9.33;8.00;;;;;26.82;31.02;99938.31;6321867;20;2766944;-58
2022/05/11 08:13:30;;;;;;;;;8.00;8.00;;;;;27.24;29.72;99936.69;6319789;20;2737745;-61
2022/05/11 08:15:58;;;;;;;;;8.00;8.00;;;;;26.69;30.84;99938.16;6318121;20;2772112;-58
2022/05/11 08:18:27;;;;;;;;;14.00;9.00;;;;;27.07;31.26;99940.72;6315258;20;2773213;-58
2022/05/11 08:20:56;;;;;;;;;9.00;8.00;;;;;26.08;31.22;99934.75;6316180;20;2754433;-59
2022/05/11 08:23:26;;;;;;;;;9.00;9.00;;;;;26.41;30.99;99936.09;6321217;20;2750278;-58
2022/05/11 08:25:57;;;;;;;;;9.33;9.33;;;;;27.02;30.46;99937.69;6315988;20;2757654;-58
2022/05/11 08:28:27;;;;;;;;;8.00;8.00;;;;;27.20;31.46;99940.91;6325000;20;2738804;-58
2022/05/11 08:33:43;;;;;;;;;9.00;8.00;;;;;26.91;29.91;99937.16;6316145;20;2755073;-57
2022/05/11 08:36:32;;;;;;;;;8.33;7.00;;;;;27.38;30.69;99936.81;6316241;20;2748224;-60
2022/05/11 08:39:01;;;;;;;;;8.00;8.00;;;;;27.20;30.45;99940.91;6318082;20;2740941;-60
2022/05/11 08:41:51;;;;;;;;;10.00;8.00;;;;;26.01;31.02;99930.00;6312260;20;3472091;-57
2022/05/11 08:44:32;;;;;;;;;9.00;7.00;;;;;25.99;30.92;99931.25;6314714;20;2755574;-59
2022/05/11 08:47:45;;;;;;;;;10.00;9.00;;;;;26.83;31.44;99937.28;6317346;20;2772188;-59
2022/05/11 08:50:26;;;;;;;;;7.00;7.00;;;;;27.14;29.75;99936.13;6316226;20;2748353;-58
2022/05/11 08:53:14;;;;;;;;;8.00;7.00;;;;;26.63;30.22;99944.44;6320452;20;2746247;-59
2022/05/11 08:55:52;;;;;;;;;9.00;8.00;;;;;26.93;30.27;99940.53;6315434;20;2757599;-59
2022/05/11 08:58:46;;;;;;;;;8.00;8.00;;;;;26.96;30.15;99942.06;6318931;20;2743997;-59
2022/05/11 09:01:37;;;;;;;;;7.67;7.00;;;;;26.94;29.64;99944.19;6314311;20;2731501;-60
2022/05/11 09:04:11;;;;;;;;;10.00;10.00;;;;;27.63;29.84;99938.09;6312417;20;2782547;-60
2022/05/11 09:06:43;;;;;;;;;9.00;8.00;;;;;27.58;29.38;99940.59;6313851;20;2734713;-58
2022/05/11 09:09:14;;;;;;;;;8.67;7.67;;;;;27.62;29.41;99938.28;6317852;20;2750297;-58
2022/05/11 09:11:54;;;;;;;;;9.33;7.67;;;;;27.32;30.46;99938.44;6316131;20;2768075;-58
2022/05/11 09:14:36;;;;;;;;;7.33;7.33;;;;;27.50;30.53;99938.84;6323599;20;2735693;-57
2022/05/11 09:17:26;;;;;;;;;7.67;7.00;;;;;27.29;29.70;99942.47;6316468;20;2739854;-57
2022/05/11 09:20:10;;;;;;;;;7.33;6.33;;;;;28.01;29.05;99940.53;6318257;20;2738774;-57
2022/05/11 09:23:03;;;;;;;;;8.67;8.67;;;;;27.52;27.75;99938.66;6317559;20;2743036;-58
2022/05/11 09:25:37;;;;;;;;;10.67;9.67;;;;;27.72;27.95;99938.81;6313451;20;2770063;-58
2022/05/11 09:28:31;;;;;;;;;8.67;8.67;;;;;27.56;27.79;99939.94;6314381;20;2741912;-58
2022/05/11 09:31:24;;;;;;;;;9.33;8.00;;;;;27.96;27.61;99934.78;6316070;20;2741944;-57
2022/05/11 09:34:05;;;;;;;;;8.33;5.67;;;;;27.31;28.58;99932.09;6315693;20;2735684;-58
2022/05/11 09:37:07;;;;;;;;;10.00;7.00;;;;;27.56;29.46;99928.91;6321029;20;2762831;-58
2022/05/11 09:39:36;;;;;;;;;9.67;9.67;;;;;27.31;30.09;99929.34;6310706;20;2773156;-58
2022/05/11 09:42:19;;;;;;;;;9.33;9.33;;;;;27.35;29.65;99922.34;6322370;20;2762825;-58
2022/05/11 09:44:49;;;;;;;;;11.00;8.00;;;;;28.20;29.11;99925.16;6310416;20;2767983;-59
2022/05/11 09:47:27;;;;;;;;;9.67;8.67;;;;;28.13;29.53;99924.28;6316620;20;2760663;-58
2022/05/11 09:50:20;;;;;;;;;8.00;8.00;;;;;27.58;27.46;99929.56;6322903;20;2744049;-58
2022/05/11 09:52:49;;;;;;;;;6.67;6.67;;;;;27.89;28.47;99928.38;6313931;20;2734634;-59
2022/05/11 09:55:28;;;;;;;;;9.33;8.00;;;;;27.60;26.92;99930.22;6312611;20;2757630;-58
2022/05/11 09:58:08;;;;;;;;;9.00;7.33;;;;;26.79;27.14;99916.66;6317573;20;2733588;-58
2022/05/11 10:00:42;;;;;;;;;8.67;8.67;;;;;27.27;27.97;99918.88;6313240;20;2748187;-58
2022/05/11 10:03:28;;;;;;;;;9.00;7.33;;;;;27.61;26.96;99926.41;6314911;20;2739921;-58
2022/05/11 10:05:58;;;;;;;;;7.67;7.67;;;;;27.31;27.29;99923.81;6309767;20;2747129;-58
2022/05/11 10:08:37;;;;;;;;;8.00;8.00;;;;;26.98;26.94;99925.34;6317742;20;2740920;-59
2022/05/11 10:11:18;;;;;;;;;10.00;7.00;;;;;27.12;27.63;99919.78;6310623;20;2772212;-59
2022/05/11 10:23:29;;;;;;;;;9.00;9.00;;;;;28.19;28.99;99924.31;6312948;20;2750287;-59
2022/05/11 10:26:12;;;;;;;;;10.00;10.00;;;;;26.64;29.14;99911.16;6310661;20;2792154;-58
2022/05/11 10:29:53;;;;;;;;;13.00;9.00;;;;;27.46;28.69;99911.84;6310997;20;2774242;-59
2022/05/11 10:32:34;;;;;;;;;9.00;9.00;;;;;27.81;28.34;99904.53;6313820;20;2748184;-59
2022/05/11 10:35:32;;;;;;;;;10.00;10.00;;;;;27.61;29.41;99909.00;6312750;20;3516011;-59
2022/05/11 10:38:53;;;;;;;;;10.00;10.00;;;;;27.67;29.46;99909.03;6280995;20;3514849;-59
2022/05/11 10:41:32;;;;;;;;;12.00;10.67;;;;;28.05;28.70;99905.97;6277713;20;2787752;-59
2022/05/11 10:44:27;;;;;;;;;9.00;9.00;;;;;28.06;29.31;99910.41;6311033;20;2754521;-59
2022/05/11 10:47:19;;;;;;;;;10.00;8.00;;;;;27.75;29.14;99902.53;6310411;20;2768012;-58
2022/05/11 10:49:53;;;;;;;;;9.00;9.00;;;;;28.21;27.20;99905.63;6317179;20;2756495;-59
2022/05/11 10:52:59;;;;;;;;;9.00;7.00;;;;;27.53;26.73;99904.50;6314896;20;2752344;-59
2022/05/11 10:55:46;;;;;;;;;7.00;7.00;;;;;27.63;25.45;99899.47;6314880;20;2741977;-58
2022/05/11 10:58:54;;;;;;;;;10.33;8.67;;;;;28.10;26.35;99900.69;6312693;20;2770067;-59
2022/05/11 11:01:31;;;;;;;;;7.00;6.00;;;;;27.95;26.13;99902.72;6315626;20;2732573;-59
2022/05/11 11:04:50;;;;;;;;;9.00;9.00;;;;;28.64;26.00;99899.06;6312139;20;2732540;-59
2022/05/11 11:08:25;;;;;;;;;14.00;11.00;;;;;28.11;27.12;99887.72;6309936;20;3517022;-59
2022/05/11 11:11:22;;;;;;;;;12.60;9.00;;;;;28.28;26.89;99889.13;6311471;20;2775413;-58
2022/05/11 11:14:00;;;;;;;;;10.67;10.33;;;;;28.31;27.37;99891.47;6307977;20;3504409;-58
2022/05/11 11:16:49;;;;;;;;;9.67;8.00;;;;;28.82;26.55;99887.44;6322183;20;2758576;-59
2022/05/11 11:19:19;;;;;;;;;8.67;8.67;;;;;27.88;27.09;99888.00;6316831;20;2741951;-59
2022/05/11 11:21:48;;;;;;;;;8.33;7.33;;;;;28.26;25.10;99887.63;6311163;20;2747144;-59
2022/05/11 11:24:28;;;;;;;;;11.33;9.33;;;;;27.94;25.09;99892.75;6324075;20;2776306;-59
2022/05/11 11:27:05;;;;;;;;;7.33;6.00;;;;;27.69;24.56;99879.34;6322420;20;2744004;-58
2022/05/11 11:29:59;;;;;;;;;8.33;7.33;;;;;28.33;25.26;99881.06;6320133;20;2748644;-59
2022/05/11 11:32:28;;;;;;;;;9.00;7.00;;;;;28.16;23.29;99874.16;6323158;20;2739842;-52
2022/05/11 11:35:24;;;;;;;;;8.00;8.00;;;;;28.13;25.21;99878.19;6316653;20;2750309;-56
2022/05/11 11:38:01;;;;;;;;;8.33;8.33;;;;;27.78;26.11;99863.53;6319940;20;2744034;-57
2022/05/11 11:40:33;;;;;;;;;9.67;8.00;;;;;28.45;26.03;99875.81;6318496;20;2748217;-57
2022/05/11 11:43:42;;;;;;;;;9.00;8.00;;;;;28.00;27.12;99864.31;6323075;20;2761730;-56
2022/05/11 11:46:41;;;;;;;;;2.00;2.00;;;;;28.03;28.42;99858.38;6343351;20;2748589;-55
2022/05/11 11:49:30;;;;;;;;;10.33;9.00;;;;;28.69;26.90;99868.88;6283948;20;3484640;-51
2022/05/11 11:52:04;;;;;;;;;9.00;9.00;;;;;29.06;27.41;99863.91;6315423;20;2754503;-53
2022/05/11 11:54:38;;;;;;;;;8.67;8.67;;;;;28.55;26.92;99861.63;6316107;20;3473193;-54
2022/05/11 11:57:13;;;;;;;;;8.67;8.67;;;;;28.42;26.41;99857.72;6316709;20;3474253;-54
2022/05/11 11:59:49;;;;;;;;;10.00;10.00;;;;;28.67;27.20;99851.66;6313773;20;3508570;-53
2022/05/11 12:02:36;;;;;;;;;13.33;9.00;;;;;28.26;28.20;99855.31;6281677;20;2775278;-55
2022/05/11 12:05:40;;;;;;;;;9.67;9.67;;;;;28.07;26.63;99853.28;6316835;20;3491947;-57
2022/05/11 12:17:40;;;;;;;;;11.33;10.33;;;;;28.45;27.81;99837.16;6284717;20;2485692;-56
2022/05/11 12:20:17;;;;;;;;;11.00;11.00;;;;;28.67;27.45;99835.97;6315691;20;2483569;-54
2022/05/11 12:22:57;;;;;;;;;11.33;11.33;;;;;28.13;27.55;99834.00;6316348;20;3526402;-56
2022/05/11 12:25:38;;;;;;;;;11.00;11.00;;;;;28.71;27.27;99836.38;6285011;20;2483589;-53